| time (UTC) | temp C | wind direction | speed KPH | gust KPH | rain 1hr cm | rain 24hr cm | rain mn cm | humidity % | barometer mb |
| 20260831210046 | 37 | 91 | 16.1 | 14.5 | 0.00 | 0.00 | 0.00 | ||
| 20260831205546 | 38 | 141 | 12.9 | 9.7 | 0.00 | 0.00 | 0.00 | ||
| 20260831205046 | 37 | 84 | 14.5 | 11.3 | 0.00 | 0.00 | 0.00 | ||
| 20260831204543 | 37 | 79 | 14.5 | 16.1 | 0.00 | 0.00 | 0.00 | ||
| 20260831204043 | 37 | 79 | 19.3 | 19.3 | 0.00 | 0.00 | 0.00 | ||
| 20260831203543 | 36 | 77 | 12.9 | 17.7 | 0.00 | 0.00 | 0.00 | ||
| 20260831203040 | 37 | 101 | 16.1 | 14.5 | 0.00 | 0.00 | 0.00 | ||
| 20260831202541 | 36 | 69 | 16.1 | 12.9 | 0.00 | 0.00 | 0.00 | ||
| 20260831202041 | 37 | 48 | 16.1 | 16.1 | 0.00 | 0.00 | 0.00 | ||
| 20260831201538 | 37 | 203 | 1.6 | 0.0 | 0.00 | 0.00 | 0.00 | ||
| 20260831201038 | 38 | 153 | 14.5 | 6.4 | 0.00 | 0.00 | 0.00 | ||
| 20260831200538 | 37 | 104 | 16.1 | 12.9 | 0.00 | 0.00 | 0.00 | ||
| 20260831200036 | 37 | 127 | 11.3 | 12.9 | 0.00 | 0.00 | 0.00 | ||
| 20260831195536 | 37 | 139 | 14.5 | 16.1 | 0.00 | 0.00 | 0.00 | ||
| 20260831195036 | 37 | 89 | 20.9 | 14.5 | 0.00 | 0.00 | 0.00 | ||
| 20260831194533 | 38 | 158 | 11.3 | 19.3 | 0.00 | 0.00 | 0.00 | ||
| 20260831194033 | 37 | 113 | 12.9 | 16.1 | 0.00 | 0.00 | 0.00 | ||
| 20260831193533 | 37 | 173 | 11.3 | 4.8 | 0.00 | 0.00 | 0.00 | ||
| 20260831193031 | 37 | 163 | 17.7 | 17.7 | 0.00 | 0.00 | 0.00 | ||
| 20260831192531 | 35 | 75 | 11.3 | 11.3 | 0.00 | 0.00 | 0.00 | ||
| 20260831192031 | 36 | 86 | 14.5 | 14.5 | 0.00 | 0.00 | 0.00 | ||
| 20260831191528 | 36 | 56 | 19.3 | 14.5 | 0.00 | 0.00 | 0.00 | ||
| 20260831191029 | 36 | 76 | 14.5 | 17.7 | 0.00 | 0.00 | 0.00 | ||
| 20260831190529 | 36 | 70 | 17.7 | 19.3 | 0.00 | 0.00 | 0.00 | ||
| 20260831190026 | 36 | 134 | 12.9 | 11.3 | 0.00 | 0.00 | 0.00 | ||
| 20260831185526 | 36 | 66 | 14.5 | 11.3 | 0.00 | 0.00 | 0.00 | ||
| 20260831185026 | 37 | 98 | 17.7 | 17.7 | 0.00 | 0.00 | 0.00 | ||
| 20260831184524 | 37 | 110 | 12.9 | 12.9 | 0.00 | 0.00 | 0.00 | ||
| 20260831184024 | 37 | 115 | 25.7 | 14.5 | 0.00 | 0.00 | 0.00 | ||
| 20260831183524 | 36 | 231 | 6.4 | 1.6 | 0.00 | 0.00 | 0.00 | ||
| 20260831183021 | 36 | 174 | 9.7 | 9.7 | 0.00 | 0.00 | 0.00 | ||
| 20260831182521 | 35 | 75 | 19.3 | 16.1 | 0.00 | 0.00 | 0.00 | ||
| 20260831182022 | 35 | 208 | 14.5 | 12.9 | 0.00 | 0.00 | 0.00 | ||
| 20260831181519 | 36 | 170 | 12.9 | 19.3 | 0.00 | 0.00 | 0.00 | ||
| 20260831181019 | 37 | 125 | 16.1 | 14.5 | 0.00 | 0.00 | 0.00 | ||
| 20260831180519 | 36 | 110 | 9.7 | 19.3 | 0.00 | 0.00 | 0.00 | ||
| 20260831180015 | 36 | 160 | 14.5 | 11.3 | 0.00 | 0.00 | 0.00 | ||
| 20260831175516 | 36 | 141 | 12.9 | 9.7 | 0.00 | 0.00 | 0.00 | ||
| 20260831175016 | 37 | 187 | 16.1 | 22.5 | 0.00 | 0.00 | 0.00 |